createdAt,value
2018-03-01T00:01:51.747Z,67.70
2018-03-01T00:04:19.952Z,68.00
2018-03-01T00:06:48.129Z,67.90
2018-03-01T00:09:16.370Z,68.10
2018-03-01T00:11:44.558Z,67.90
2018-03-01T00:14:12.742Z,67.90
2018-03-01T00:16:40.979Z,67.80
2018-03-01T00:19:09.179Z,68.20
2018-03-01T00:21:37.362Z,68.10
2018-03-01T00:24:06.362Z,68.00
2018-03-01T00:26:34.562Z,68.00
2018-03-01T00:29:03.518Z,68.30
2018-03-01T00:31:31.704Z,68.10
2018-03-01T00:33:59.879Z,68.30
2018-03-01T00:36:28.062Z,68.40
2018-03-01T00:38:56.299Z,68.00
2018-03-01T01:25:06.826Z,69.50
2018-03-01T01:27:36.070Z,69.80
2018-03-01T01:30:04.270Z,69.60
2018-03-01T01:32:32.472Z,69.60
2018-03-01T01:35:01.439Z,69.50
2018-03-01T01:37:29.634Z,69.50
2018-03-01T01:39:57.815Z,69.40
2018-03-01T01:42:26.807Z,69.70
2018-03-01T01:44:55.755Z,69.70
2018-03-01T01:47:23.949Z,69.60
2018-03-01T01:49:52.146Z,70.10
2018-03-01T01:52:20.332Z,69.70
2018-03-01T01:54:48.530Z,69.90
2018-03-01T01:57:16.719Z,70.10
2018-03-01T01:59:44.901Z,70.60
2018-03-01T02:02:13.095Z,70.30
2018-03-01T02:04:41.306Z,70.50
2018-03-01T02:07:10.263Z,70.50
2018-03-01T02:09:38.450Z,70.50
2018-03-01T02:12:06.667Z,70.70
2018-03-01T02:14:34.884Z,71.00
2018-03-01T02:17:03.078Z,71.00
2018-03-01T02:19:31.278Z,70.50
2018-03-01T02:22:00.236Z,69.60
2018-03-01T02:24:28.424Z,69.40
2018-03-01T02:26:56.612Z,69.80
2018-03-01T02:29:25.593Z,70.10
2018-03-01T02:31:53.785Z,70.00
2018-03-01T02:34:22.739Z,70.10
2018-03-01T02:36:50.926Z,70.00
2018-03-01T02:39:19.146Z,70.10
2018-03-01T02:41:48.111Z,70.20
2018-03-01T02:44:16.303Z,70.10
2018-03-01T02:46:45.258Z,69.40
2018-03-01T02:49:13.446Z,69.40
2018-03-01T02:51:41.648Z,69.70
2018-03-01T02:54:10.591Z,70.00
2018-03-01T02:56:39.596Z,70.10
2018-03-01T02:59:07.806Z,70.00
2018-03-01T03:01:36.752Z,70.40
2018-03-01T03:04:04.948Z,70.30
2018-03-01T03:06:33.130Z,70.60
2018-03-01T03:09:01.315Z,70.80
2018-03-01T03:11:30.299Z,70.40
2018-03-01T03:13:58.489Z,70.30
2018-03-01T03:16:27.452Z,70.30
2018-03-01T03:18:55.654Z,70.20
2018-03-01T03:21:24.623Z,70.90
2018-03-01T03:23:52.810Z,70.80
2018-03-01T03:26:21.027Z,71.30
2018-03-01T03:28:49.216Z,72.30
2018-03-01T03:31:17.410Z,71.60
2018-03-01T03:33:45.596Z,71.60
2018-03-01T03:36:13.784Z,71.40
2018-03-01T03:38:41.979Z,71.60
2018-03-01T03:41:10.953Z,71.80
2018-03-01T03:43:39.144Z,71.70
2018-03-01T03:46:07.369Z,71.60
2018-03-01T03:48:35.560Z,71.70
2018-03-01T03:51:03.755Z,72.00
2018-03-01T03:53:31.967Z,72.10
2018-03-01T03:56:00.162Z,72.20
2018-03-01T03:58:28.349Z,71.90
2018-03-01T04:00:56.530Z,71.90
2018-03-01T04:03:24.711Z,72.00
2018-03-01T04:05:52.930Z,71.90
2018-03-01T04:08:21.114Z,72.20
2018-03-01T04:10:49.306Z,72.30
2018-03-01T04:13:17.495Z,72.30
2018-03-01T04:15:45.683Z,72.20
2018-03-01T04:18:13.898Z,72.20
2018-03-01T04:20:42.855Z,72.80
2018-03-01T04:23:11.086Z,72.00
2018-03-01T04:25:39.274Z,72.00
2018-03-01T04:28:07.468Z,72.10
2018-03-01T04:30:35.664Z,72.10
2018-03-01T04:33:03.850Z,71.80
2018-03-01T04:35:32.039Z,71.70
2018-03-01T04:38:00.994Z,71.90
2018-03-01T04:40:29.202Z,71.80
2018-03-01T04:42:58.158Z,71.30
2018-03-01T04:45:26.361Z,71.20
2018-03-01T04:47:55.319Z,71.20
2018-03-01T04:50:23.514Z,71.10
2018-03-01T04:52:51.709Z,71.40
2018-03-01T04:55:20.660Z,71.60
2018-03-01T04:57:49.622Z,71.40
2018-03-01T05:00:17.831Z,71.40
2018-03-01T05:02:46.013Z,71.50
2018-03-01T05:05:14.217Z,71.60
2018-03-01T05:07:43.183Z,71.80
2018-03-01T05:10:11.388Z,71.80
2018-03-01T05:12:39.659Z,72.20
2018-03-01T05:15:08.617Z,72.80
2018-03-01T05:17:36.798Z,72.80
2018-03-01T05:20:05.002Z,72.90
2018-03-01T05:22:33.987Z,73.00
2018-03-01T05:25:02.166Z,72.90
2018-03-01T05:27:30.355Z,73.00
2018-03-01T05:29:59.320Z,73.10
2018-03-01T05:32:27.509Z,73.00
2018-03-01T05:34:55.754Z,72.80
2018-03-01T05:37:23.992Z,73.20
2018-03-01T05:39:52.193Z,72.10
2018-03-01T05:42:20.373Z,72.10
2018-03-01T05:44:48.563Z,72.30
2018-03-01T05:47:16.750Z,72.50
2018-03-01T05:49:44.944Z,72.60
2018-03-01T05:52:13.909Z,72.70
2018-03-01T05:54:42.110Z,73.30
2018-03-01T05:57:11.100Z,72.40
2018-03-01T05:59:39.398Z,72.30
2018-03-01T06:02:07.667Z,72.30
2018-03-01T06:04:36.656Z,71.80
2018-03-01T06:07:05.638Z,71.80
2018-03-01T06:09:33.859Z,71.80
2018-03-01T06:12:02.089Z,71.60
2018-03-01T06:14:30.278Z,71.80
2018-03-01T06:16:59.237Z,70.70
2018-03-01T06:19:27.450Z,70.60
2018-03-01T06:21:56.414Z,70.60
2018-03-01T06:24:24.598Z,70.50
2018-03-01T06:26:52.787Z,70.30
2018-03-01T06:29:21.744Z,70.00
2018-03-01T06:31:49.917Z,69.90
2018-03-01T06:34:18.103Z,69.90
2018-03-01T06:36:46.290Z,69.60
2018-03-01T06:39:14.486Z,69.10
2018-03-01T06:41:43.447Z,70.00
2018-03-01T06:44:12.413Z,69.90
2018-03-01T06:46:40.688Z,69.80
2018-03-01T06:49:08.932Z,68.70
2018-03-01T06:51:37.878Z,67.90
2018-03-01T06:54:06.061Z,67.80
2018-03-01T06:56:34.269Z,67.60
2018-03-01T06:59:03.251Z,67.40
2018-03-01T07:01:32.210Z,67.70
2018-03-01T07:04:00.434Z,67.60
2018-03-01T07:06:29.394Z,67.80
2018-03-01T07:08:57.596Z,67.70
2018-03-01T07:11:26.574Z,67.60
2018-03-01T07:13:54.803Z,67.60
2018-03-01T07:16:23.024Z,67.50
2018-03-01T07:18:51.237Z,67.50
2018-03-01T07:21:19.447Z,67.20
2018-03-01T07:23:47.664Z,66.70
2018-03-01T07:26:16.701Z,66.10
2018-03-01T07:28:44.903Z,66.00
2018-03-01T07:31:13.126Z,65.60
2018-03-01T07:33:41.302Z,64.70
2018-03-01T07:36:09.479Z,64.20
2018-03-01T07:38:37.701Z,63.50
2018-03-01T07:41:05.877Z,63.00
2018-03-01T07:43:34.066Z,62.60
2018-03-01T07:46:02.272Z,62.90
2018-03-01T07:48:30.446Z,62.30
2018-03-01T07:50:58.648Z,62.10
2018-03-01T07:53:26.868Z,62.60
2018-03-01T07:55:55.055Z,64.20
2018-03-01T07:58:23.993Z,62.50
2018-03-01T08:00:52.167Z,62.60
2018-03-01T08:03:20.338Z,61.60
2018-03-01T08:05:48.517Z,60.70
2018-03-01T08:08:16.696Z,60.00
2018-03-01T08:10:44.873Z,60.40
2018-03-01T08:13:13.058Z,60.50
2018-03-01T08:15:41.236Z,59.40
2018-03-01T08:18:09.402Z,58.40
2018-03-01T08:20:37.592Z,57.10
2018-03-01T08:23:05.791Z,57.00
2018-03-01T08:25:34.744Z,58.10
2018-03-01T08:28:02.926Z,58.00
2018-03-01T08:30:31.103Z,55.00
2018-03-01T08:33:00.174Z,54.20
2018-03-01T08:35:28.372Z,54.10
2018-03-01T08:37:56.557Z,53.70
2018-03-01T08:40:24.746Z,53.60
2018-03-01T08:42:52.982Z,53.40
2018-03-01T08:45:21.893Z,53.30
2018-03-01T08:47:50.086Z,53.30
2018-03-01T08:50:18.292Z,52.50
2018-03-01T08:52:46.486Z,52.00
2018-03-01T08:55:14.673Z,51.10
2018-03-01T08:57:42.864Z,50.60
2018-03-01T09:00:11.057Z,50.00
2018-03-01T09:02:39.248Z,50.20
2018-03-01T09:05:08.209Z,49.20
2018-03-01T09:07:36.383Z,49.20
2018-03-01T09:10:04.560Z,49.00
2018-03-01T09:12:32.781Z,49.40
2018-03-01T09:15:00.985Z,48.90
2018-03-01T09:17:29.175Z,48.40
2018-03-01T09:19:57.371Z,48.50
2018-03-01T09:22:25.556Z,47.80
2018-03-01T09:24:53.854Z,47.80
2018-03-01T09:27:22.033Z,47.30
2018-03-01T09:29:50.225Z,47.30
2018-03-01T09:32:18.407Z,46.50
2018-03-01T09:34:46.582Z,47.80
2018-03-01T09:37:14.758Z,47.60
2018-03-01T09:39:42.947Z,47.20
2018-03-01T09:42:11.119Z,45.90
2018-03-01T09:44:39.307Z,46.60
2018-03-01T09:47:07.503Z,46.40
2018-03-01T09:49:35.697Z,46.10
2018-03-01T09:52:04.663Z,45.90
2018-03-01T09:54:32.857Z,45.80
2018-03-01T09:57:01.824Z,44.60
2018-03-01T09:59:30.020Z,44.40
2018-03-01T10:01:58.974Z,44.90
2018-03-01T10:04:27.155Z,44.80
2018-03-01T10:06:55.340Z,44.60
2018-03-01T10:09:23.532Z,44.80
2018-03-01T10:11:52.504Z,44.80
2018-03-01T10:14:20.689Z,44.30
2018-03-01T10:16:49.022Z,45.10
2018-03-01T10:19:17.219Z,46.20
2018-03-01T10:21:45.420Z,47.10
2018-03-01T10:24:13.628Z,48.60
2018-03-01T10:26:41.818Z,49.10
2018-03-01T10:29:10.008Z,48.20
2018-03-01T10:31:38.208Z,47.30
2018-03-01T10:34:06.458Z,46.40
2018-03-01T10:36:34.646Z,46.60
2018-03-01T10:39:02.856Z,46.00
2018-03-01T10:41:31.049Z,45.50
2018-03-01T10:43:59.303Z,45.60
2018-03-01T10:46:27.470Z,45.90
2018-03-01T10:48:55.644Z,46.90
2018-03-01T10:51:23.893Z,47.00
2018-03-01T10:53:52.123Z,47.60
2018-03-01T10:56:20.302Z,47.60
2018-03-01T10:58:49.290Z,45.70
2018-03-01T11:01:19.016Z,45.50
2018-03-01T11:03:47.222Z,45.50
2018-03-01T11:06:15.474Z,45.80
2018-03-01T11:08:43.668Z,45.90
2018-03-01T11:11:11.874Z,46.30
2018-03-01T11:13:40.228Z,44.80
2018-03-01T11:16:08.409Z,44.00
2018-03-01T11:18:36.633Z,45.20
2018-03-01T11:21:05.621Z,44.50
2018-03-01T11:23:34.593Z,43.90
2018-03-01T11:26:02.790Z,43.80
2018-03-01T11:28:31.743Z,43.90
2018-03-01T11:30:59.922Z,43.90
2018-03-01T11:33:28.106Z,44.20
2018-03-01T11:35:56.326Z,43.60
2018-03-01T11:38:24.520Z,43.30
2018-03-01T11:40:52.754Z,43.50
2018-03-01T11:43:21.721Z,41.20
2018-03-01T11:45:49.896Z,41.20
2018-03-01T11:48:18.104Z,41.10
2018-03-01T11:50:46.316Z,40.50
2018-03-01T11:53:14.559Z,37.50
2018-03-01T11:55:42.744Z,35.80
2018-03-01T11:58:10.927Z,35.20
2018-03-01T12:00:39.101Z,33.60
2018-03-01T12:03:07.275Z,32.40
2018-03-01T12:05:35.464Z,30.10
2018-03-01T12:08:03.639Z,29.00
2018-03-01T12:10:31.835Z,28.20
2018-03-01T12:13:00.036Z,28.10
2018-03-01T12:15:28.244Z,29.80
2018-03-01T12:17:56.435Z,30.60
2018-03-01T12:20:24.602Z,32.30
2018-03-01T12:22:52.769Z,31.80
2018-03-01T12:25:20.944Z,32.10
2018-03-01T12:27:49.122Z,33.30
2018-03-01T12:30:17.307Z,36.60
2018-03-01T12:32:45.486Z,38.40
2018-03-01T12:35:13.697Z,38.70
2018-03-01T12:37:41.884Z,38.70
2018-03-01T12:40:10.843Z,37.30
2018-03-01T12:42:39.030Z,37.20
2018-03-01T12:45:07.238Z,36.70
2018-03-01T12:47:36.208Z,40.00
2018-03-01T12:50:04.428Z,40.00
2018-03-01T12:52:32.984Z,41.10
2018-03-01T12:55:01.953Z,40.10
2018-03-01T12:57:30.165Z,40.00
2018-03-01T12:59:58.377Z,40.80
2018-03-01T13:02:26.577Z,42.50
2018-03-01T13:04:54.776Z,42.40
2018-03-01T13:07:23.746Z,42.40
2018-03-01T13:09:51.968Z,42.30
2018-03-01T13:12:20.170Z,40.60
2018-03-01T13:14:48.367Z,37.20
2018-03-01T13:17:16.578Z,35.30
2018-03-01T13:19:45.536Z,35.40
2018-03-01T13:22:13.725Z,35.30
2018-03-01T13:24:41.918Z,36.50
2018-03-01T13:27:10.901Z,33.70
2018-03-01T13:29:39.134Z,33.70
2018-03-01T13:32:09.739Z,32.80
2018-03-01T13:34:37.922Z,32.10
2018-03-01T13:37:06.112Z,33.70
2018-03-01T13:39:34.323Z,35.30
2018-03-01T13:42:03.003Z,35.50
2018-03-01T13:44:31.199Z,37.70
2018-03-01T13:46:59.406Z,38.80
2018-03-01T13:49:27.582Z,37.70
2018-03-01T13:51:55.769Z,38.40
2018-03-01T13:54:23.972Z,38.60
2018-03-01T13:56:52.155Z,39.70
2018-03-01T13:59:20.368Z,40.60
2018-03-01T14:01:48.579Z,41.80
2018-03-01T14:04:17.541Z,43.70
2018-03-01T14:07:01.460Z,43.30
2018-03-01T14:09:30.465Z,45.50
2018-03-01T14:11:59.438Z,46.50
2018-03-01T14:14:33.121Z,46.40
2018-03-01T14:17:02.844Z,47.00
2018-03-01T14:19:41.781Z,46.10
2018-03-01T14:22:13.911Z,46.30
2018-03-01T14:24:42.190Z,46.40
2018-03-01T14:27:10.382Z,45.90
2018-03-01T14:29:38.955Z,46.50
2018-03-01T14:32:07.369Z,47.50
2018-03-01T14:34:35.549Z,48.10
2018-03-01T14:37:04.505Z,49.30
2018-03-01T14:39:32.692Z,49.20
2018-03-01T14:42:00.866Z,49.80
2018-03-01T14:44:29.079Z,49.50
2018-03-01T14:46:57.249Z,49.30
2018-03-01T14:49:26.206Z,49.70
2018-03-01T14:51:54.409Z,49.60
2018-03-01T14:54:22.587Z,50.20
2018-03-01T14:56:51.550Z,50.50
2018-03-01T14:59:19.727Z,50.40
2018-03-01T15:01:47.930Z,50.10
2018-03-01T15:04:16.873Z,50.90
2018-03-01T15:06:45.061Z,50.90
2018-03-01T15:09:13.249Z,51.20
2018-03-01T15:11:41.444Z,51.60
2018-03-01T15:14:10.399Z,51.90
2018-03-01T15:16:38.583Z,51.80
2018-03-01T15:19:06.776Z,52.70
2018-03-01T15:21:34.955Z,53.60
2018-03-01T15:24:03.157Z,52.40
2018-03-01T15:26:32.096Z,51.90
2018-03-01T15:29:01.075Z,51.60
2018-03-01T15:31:29.254Z,51.50
2018-03-01T15:33:57.436Z,51.70
2018-03-01T15:36:25.642Z,51.60
2018-03-01T15:38:53.841Z,50.90
2018-03-01T15:41:22.045Z,49.90
2018-03-01T15:43:50.239Z,49.70
2018-03-01T15:46:18.428Z,49.10
2018-03-01T15:48:46.629Z,49.20
2018-03-01T15:51:15.575Z,48.80
2018-03-01T15:53:43.767Z,48.80
2018-03-01T15:56:11.949Z,48.70
2018-03-01T15:58:41.676Z,49.20
2018-03-01T16:01:10.627Z,50.00
2018-03-01T16:03:38.814Z,49.90
2018-03-01T16:06:07.011Z,50.90
2018-03-01T16:08:35.205Z,51.60
2018-03-01T16:11:04.151Z,53.20
2018-03-01T16:13:32.352Z,53.10
2018-03-01T16:16:01.319Z,54.00
2018-03-01T16:18:29.504Z,54.00
2018-03-01T16:20:57.680Z,53.70
2018-03-01T16:23:25.850Z,54.20
2018-03-01T16:25:54.026Z,54.60
2018-03-01T16:28:22.325Z,55.20
2018-03-01T16:30:50.514Z,55.50
2018-03-01T16:33:19.456Z,56.00
2018-03-01T16:35:47.638Z,55.90
2018-03-01T16:38:16.615Z,56.30
2018-03-01T16:40:44.817Z,55.80
2018-03-01T16:43:13.030Z,56.80
2018-03-01T16:45:41.995Z,57.30
2018-03-01T16:48:10.182Z,57.20
2018-03-01T16:50:39.150Z,57.40
2018-03-01T16:53:07.355Z,57.30
2018-03-01T16:55:36.316Z,57.80
2018-03-01T16:58:04.568Z,57.70
2018-03-01T17:00:32.746Z,57.90
2018-03-01T17:03:00.928Z,58.30
2018-03-01T17:05:29.106Z,58.50
2018-03-01T17:07:57.278Z,58.40
2018-03-01T17:10:25.467Z,58.30
2018-03-01T17:12:53.686Z,58.00
2018-03-01T17:15:22.642Z,58.00
2018-03-01T17:17:50.867Z,57.90
2018-03-01T17:20:19.056Z,58.60
2018-03-01T17:22:47.255Z,58.20
2018-03-01T17:25:15.433Z,59.00
2018-03-01T17:27:43.603Z,58.50
2018-03-01T17:30:11.772Z,58.70
2018-03-01T17:32:39.950Z,59.10
2018-03-01T17:35:08.134Z,59.40
2018-03-01T17:37:36.314Z,59.50
2018-03-01T17:40:04.486Z,62.50
2018-03-01T17:42:32.668Z,63.70
2018-03-01T17:45:00.862Z,59.80
2018-03-01T17:47:29.814Z,58.50
2018-03-01T17:49:58.016Z,58.40
2018-03-01T17:52:26.202Z,58.90
2018-03-01T17:54:55.248Z,60.10
2018-03-01T17:57:23.442Z,60.00
2018-03-01T17:59:51.655Z,60.00
2018-03-01T18:02:20.642Z,59.50
2018-03-01T18:04:49.588Z,59.30
2018-03-01T18:07:17.807Z,59.20
2018-03-01T18:09:46.903Z,59.20
2018-03-01T18:12:15.884Z,59.90
2018-03-01T18:14:44.078Z,59.80
2018-03-01T18:17:13.026Z,60.60
2018-03-01T18:19:41.210Z,60.50
2018-03-01T18:22:09.393Z,61.00
2018-03-01T18:24:37.601Z,61.10
2018-03-01T18:27:06.553Z,62.70
2018-03-01T18:29:34.733Z,62.70
2018-03-01T18:32:02.916Z,63.00
2018-03-01T18:34:31.112Z,63.30
2018-03-01T18:37:00.063Z,63.70
2018-03-01T18:39:28.249Z,63.60
2018-03-01T18:41:56.448Z,63.30
2018-03-01T18:44:25.402Z,64.70
2018-03-01T18:46:53.590Z,64.50
2018-03-01T18:49:21.774Z,64.40
2018-03-01T18:51:50.008Z,64.70
2018-03-01T18:54:18.192Z,64.50
2018-03-01T18:56:46.396Z,64.40
2018-03-01T18:59:14.580Z,64.70
2018-03-01T19:01:42.772Z,64.80
2018-03-01T19:04:11.717Z,65.20
2018-03-01T19:06:39.895Z,65.20
2018-03-01T19:09:08.077Z,65.50
2018-03-01T19:11:36.268Z,67.70
2018-03-01T19:14:04.457Z,66.00
2018-03-01T19:16:33.448Z,66.70
2018-03-01T19:19:01.650Z,66.60
2018-03-01T19:21:29.865Z,66.90
2018-03-01T19:23:58.090Z,67.40
2018-03-01T19:26:26.291Z,67.40
2018-03-01T19:28:54.505Z,67.70
2018-03-01T19:31:22.684Z,67.40
2018-03-01T19:33:50.866Z,67.50
2018-03-01T19:36:19.063Z,68.10
2018-03-01T19:38:48.038Z,68.70
2018-03-01T19:41:16.226Z,68.70
2018-03-01T19:43:45.190Z,69.00
2018-03-01T19:46:13.392Z,68.90
2018-03-01T19:48:42.351Z,69.60
2018-03-01T19:51:10.560Z,69.40
2018-03-01T19:53:39.513Z,70.40
2018-03-01T19:56:07.698Z,70.30
2018-03-01T19:58:35.902Z,70.30
2018-03-01T20:01:04.861Z,71.50
2018-03-01T20:03:33.817Z,75.20
2018-03-01T20:06:01.995Z,75.90
2018-03-01T20:08:30.184Z,73.10
2018-03-01T20:10:58.406Z,72.40
2018-03-01T20:13:26.627Z,71.80
2018-03-01T20:15:54.851Z,72.20
2018-03-01T20:18:23.047Z,72.70
2018-03-01T20:20:52.010Z,72.50
2018-03-01T20:23:20.223Z,72.40
2018-03-01T20:25:49.223Z,72.80
2018-03-01T20:28:17.410Z,72.80
2018-03-01T20:30:45.601Z,72.90
2018-03-01T20:33:13.792Z,73.30
2018-03-01T20:35:42.929Z,72.80
2018-03-01T20:38:11.094Z,72.80
2018-03-01T20:40:40.067Z,72.80
2018-03-01T20:43:08.241Z,72.80
2018-03-01T20:45:36.427Z,73.20
2018-03-01T20:48:04.622Z,73.40
2018-03-01T20:50:33.576Z,74.00
2018-03-01T20:53:01.767Z,73.90
2018-03-01T20:55:29.956Z,73.70
2018-03-01T20:57:58.920Z,74.50
2018-03-01T21:00:27.091Z,74.50
2018-03-01T21:02:55.279Z,75.20
2018-03-01T21:05:23.477Z,74.60
2018-03-01T21:07:52.436Z,74.40
2018-03-01T21:10:20.639Z,74.30
2018-03-01T21:12:49.652Z,75.90
2018-03-01T21:15:18.615Z,75.50
2018-03-01T21:17:46.804Z,75.40
2018-03-01T21:20:15.847Z,75.00
2018-03-01T21:22:44.176Z,74.80
2018-03-01T21:25:13.130Z,74.40
2018-03-01T21:27:41.318Z,74.20
2018-03-01T21:30:09.530Z,75.20
2018-03-01T21:32:38.476Z,74.50
2018-03-01T21:35:06.727Z,74.50
2018-03-01T21:37:34.929Z,75.00
2018-03-01T21:40:03.106Z,74.90
2018-03-01T21:42:33.211Z,75.00
2018-03-01T21:45:01.420Z,75.20
2018-03-01T21:47:29.614Z,75.60
2018-03-01T21:49:58.667Z,74.80
2018-03-01T21:52:26.905Z,74.80
2018-03-01T21:54:55.149Z,75.00
2018-03-01T21:57:24.113Z,74.80
2018-03-01T21:59:52.315Z,74.70
2018-03-01T22:02:20.524Z,75.00
2018-03-01T22:04:48.698Z,74.90
2018-03-01T22:07:16.895Z,75.10
2018-03-01T22:09:45.080Z,75.40
2018-03-01T22:12:13.348Z,75.30
2018-03-01T22:14:41.535Z,75.40
2018-03-01T22:17:09.711Z,75.30
2018-03-01T22:19:37.889Z,75.30
2018-03-01T22:22:06.077Z,75.20
2018-03-01T22:24:34.267Z,75.30
2018-03-01T22:27:02.448Z,75.30
2018-03-01T22:29:31.390Z,75.30
2018-03-01T22:31:59.604Z,75.20
2018-03-01T22:34:27.814Z,75.30
2018-03-01T22:36:56.014Z,75.00
2018-03-01T22:39:24.207Z,75.00
2018-03-01T22:41:52.393Z,75.10
2018-03-01T22:44:20.588Z,75.20
2018-03-01T22:46:49.539Z,75.00
2018-03-01T22:49:17.708Z,74.80
2018-03-01T22:51:45.892Z,75.20
2018-03-01T22:54:14.070Z,75.50
2018-03-01T22:56:42.268Z,75.30
2018-03-01T22:59:10.520Z,75.30
2018-03-01T23:01:38.729Z,75.40
2018-03-01T23:04:06.953Z,75.20
2018-03-01T23:06:35.134Z,75.20
2018-03-01T23:09:03.337Z,75.10
2018-03-01T23:11:31.522Z,75.10
2018-03-01T23:14:00.497Z,75.50
2018-03-01T23:16:28.671Z,75.50
2018-03-01T23:18:56.909Z,75.70
2018-03-01T23:21:25.088Z,75.70
2018-03-01T23:23:53.278Z,75.40
2018-03-01T23:26:21.461Z,75.40
2018-03-01T23:28:49.663Z,75.20
2018-03-01T23:31:17.861Z,75.30
2018-03-01T23:33:46.822Z,75.10
2018-03-01T23:36:15.013Z,75.00
2018-03-01T23:38:43.222Z,74.70
2018-03-01T23:41:11.415Z,74.90
2018-03-01T23:43:39.602Z,75.00
2018-03-01T23:46:07.792Z,74.80
2018-03-01T23:48:35.968Z,75.00
2018-03-01T23:51:04.909Z,75.20
2018-03-01T23:53:33.143Z,75.10
2018-03-01T23:56:01.331Z,75.00
2018-03-01T23:58:30.295Z,75.20
